Time;durP1;ratioP1;P1;durP2;ratioP2;P2;SDS_P1;SDS_P2;PMS_P1;PMS_P2;Temp;Humidity;BMP_temperature;BMP_pressure;BME280_temperature;BME280_humidity;BME280_pressure;Samples;Min_cycle;Max_cycle;Signal;HPM_P1;HPM_P2
2022/12/21 00:01:28;;;;;;;37.30;20.80;;;;;;;1.40;77.26;99782.10;209880;1294;139743;-72
2022/12/21 00:06:36;;;;;;;40.60;20.10;;;;;;;1.39;77.41;99784.41;207769;1299;139108;-63
2022/12/21 00:11:41;;;;;;;40.20;21.20;;;;;;;1.39;77.46;99799.65;210417;1301;141762;-67
2022/12/21 00:16:46;;;;;;;38.60;21.20;;;;;;;1.43;77.27;99817.32;208936;1295;139433;-71
2022/12/21 00:21:53;;;;;;;45.80;24.00;;;;;;;1.47;77.43;99823.08;210359;1302;141227;-68
2022/12/21 00:26:57;;;;;;;38.30;21.60;;;;;;;1.51;77.30;99812.45;209397;1288;139789;-68
2022/12/21 00:32:01;;;;;;;32.00;19.20;;;;;;;1.51;77.24;99814.89;207746;1294;140583;-69
2022/12/21 00:37:05;;;;;;;34.20;17.10;;;;;;;1.52;77.36;99824.88;208155;1293;139912;-68
2022/12/21 00:42:09;;;;;;;38.10;19.00;;;;;;;1.51;77.17;99815.08;208231;1295;139671;-68
2022/12/21 00:47:15;;;;;;;43.20;22.90;;;;;;;1.54;77.28;99802.72;208332;1287;140345;-68
2022/12/21 00:52:19;;;;;;;57.00;19.40;;;;;;;1.50;76.84;99774.02;208193;1288;139159;-66
2022/12/21 00:57:26;;;;;;;40.90;21.20;;;;;;;1.41;77.00;99748.77;208397;1302;138976;-67
2022/12/21 01:02:32;;;;;;;43.00;22.10;;;;;;;1.40;76.93;99749.64;208842;1299;140529;-65
2022/12/21 01:07:37;;;;;;;32.80;18.20;;;;;;;1.40;77.21;99753.29;207199;1287;141760;-67
2022/12/21 01:12:42;;;;;;;40.00;21.00;;;;;;;1.42;77.42;99782.42;207546;1294;141317;-66
2022/12/21 01:17:47;;;;;;;37.20;20.50;;;;;;;1.42;77.55;99790.83;207542;1293;140622;-66
2022/12/21 01:22:53;;;;;;;42.60;19.60;;;;;;;1.40;77.33;99790.41;207391;1293;139693;-67
2022/12/21 01:27:59;;;;;;;38.40;21.10;;;;;;;1.40;77.09;99765.56;207639;1295;140268;-66
2022/12/21 01:33:05;;;;;;;32.00;15.60;;;;;;;1.32;77.36;99740.56;207834;1294;140998;-65
2022/12/21 01:38:12;;;;;;;43.10;22.50;;;;;;;1.21;77.26;99738.61;208932;1299;139138;-68
2022/12/21 01:43:39;;;;;;;41.60;21.50;;;;;;;1.23;77.50;99769.73;207682;1294;150639;-70
2022/12/21 01:48:48;;;;;;;37.10;18.00;;;;;;;1.29;77.29;99758.54;207593;1281;139847;-69
2022/12/21 01:53:59;;;;;;;39.10;21.60;;;;;;;1.19;77.28;99760.02;208773;1300;139777;-69
2022/12/21 01:59:25;;;;;;;45.40;23.30;;;;;;;1.17;77.49;99757.84;208305;1295;139599;-69
2022/12/21 02:04:30;;;;;;;45.40;21.80;;;;;;;1.12;77.48;99769.21;208467;1288;140667;-68
2022/12/21 02:09:36;;;;;;;41.20;20.80;;;;;;;1.13;77.09;99789.10;209170;1296;140030;-68
2022/12/21 02:14:43;;;;;;;43.00;21.60;;;;;;;1.12;77.47;99778.15;210286;1295;139728;-68
2022/12/21 02:20:20;;;;;;;44.20;22.80;;;;;;;1.11;77.48;99793.90;209346;1294;139555;-70
2022/12/21 02:25:56;;;;;;;45.60;21.70;;;;;;;1.08;77.45;99794.11;210552;1295;140396;-70
2022/12/21 02:31:10;;;;;;;42.00;22.20;;;;;;;1.07;77.41;99784.34;210542;1300;139728;-68
2022/12/21 02:36:32;;;;;;;43.10;22.90;;;;;;;1.02;77.12;99781.34;208323;1295;141498;-67
2022/12/21 02:41:56;;;;;;;51.20;24.00;;;;;;;0.98;77.15;99782.50;208884;1299;139841;-69
2022/12/21 02:47:24;;;;;;;44.40;17.90;;;;;;;0.90;77.25;99729.73;208413;1295;139335;-69
2022/12/21 02:52:39;;;;;;;49.70;25.00;;;;;;;0.80;77.17;99690.47;208308;1287;141833;-70
2022/12/21 02:57:45;;;;;;;42.40;23.80;;;;;;;0.68;77.23;99692.33;209093;1295;140236;-69
2022/12/21 03:09:05;;;;;;;42.20;21.90;;;;;;;0.70;77.75;99727.67;207939;1297;139715;-73
2022/12/21 03:14:19;;;;;;;41.90;21.10;;;;;;;0.74;77.49;99707.91;207735;1294;140753;-69
2022/12/21 03:19:51;;;;;;;39.20;21.90;;;;;;;0.69;77.26;99706.42;208007;1300;141311;-65
2022/12/21 03:25:25;;;;;;;51.20;23.60;;;;;;;0.65;77.60;99706.30;208085;1294;138643;-68
2022/12/21 03:30:39;;;;;;;54.60;28.90;;;;;;;0.67;77.73;99719.52;207534;1288;139551;-65
2022/12/21 03:36:04;;;;;;;50.20;24.40;;;;;;;0.77;78.12;99718.66;207620;1287;140208;-65
2022/12/21 03:41:25;;;;;;;45.10;23.80;;;;;;;0.80;77.60;99722.45;207858;1296;140881;-66
2022/12/21 03:46:57;;;;;;;36.00;19.40;;;;;;;0.79;77.67;99714.95;207688;1297;140855;-67
2022/12/21 03:52:20;;;;;;;41.70;22.60;;;;;;;0.72;77.72;99713.63;207971;1295;139370;-67
2022/12/21 03:57:26;;;;;;;49.30;24.60;;;;;;;0.76;77.98;99710.89;209306;1295;140713;-67
2022/12/21 04:02:38;;;;;;;44.00;22.70;;;;;;;0.77;77.89;99691.14;209600;1302;139751;-68
2022/12/21 04:07:45;;;;;;;42.40;19.50;;;;;;;0.77;77.97;99665.98;210400;1295;139361;-67
2022/12/21 04:12:50;;;;;;;49.80;22.10;;;;;;;0.75;77.68;99650.78;208773;1295;140367;-69
2022/12/21 04:17:55;;;;;;;43.50;20.90;;;;;;;0.82;77.88;99637.71;207850;1287;139716;-69
2022/12/21 04:28:26;;;;;;;40.40;21.20;;;;;;;0.83;77.42;99639.27;210454;1295;244729;-70
2022/12/21 04:33:52;;;;;;;38.00;21.10;;;;;;;0.82;78.07;99658.38;207771;1295;138871;-69
2022/12/21 04:38:55;;;;;;;37.70;18.50;;;;;;;0.85;77.68;99667.15;208310;1281;139855;-70
2022/12/21 04:43:59;;;;;;;33.80;19.00;;;;;;;0.91;77.75;99666.48;208406;1294;140583;-71
2022/12/21 04:49:04;;;;;;;40.20;20.30;;;;;;;0.89;77.67;99661.06;208335;1295;139640;-70
2022/12/21 04:54:09;;;;;;;39.60;19.40;;;;;;;0.88;78.09;99666.45;208729;1294;140056;-69
2022/12/21 04:59:14;;;;;;;42.40;23.00;;;;;;;0.86;78.15;99665.57;208805;1295;139375;-68
2022/12/21 05:04:19;;;;;;;40.30;18.90;;;;;;;0.86;77.77;99668.27;207754;1288;139229;-66
2022/12/21 05:09:25;;;;;;;41.60;21.00;;;;;;;0.91;77.87;99674.65;208641;1287;140511;-67
2022/12/21 05:14:27;;;;;;;39.80;22.80;;;;;;;0.94;77.95;99673.56;208759;1295;139547;-68
2022/12/21 05:19:33;;;;;;;33.60;17.00;;;;;;;0.95;77.92;99664.61;208807;1289;140847;-66
2022/12/21 05:24:38;;;;;;;38.50;19.20;;;;;;;0.94;78.05;99670.69;208185;1295;140438;-67
2022/12/21 05:29:44;;;;;;;46.20;21.80;;;;;;;0.96;77.78;99662.86;208988;1288;140447;-67
2022/12/21 05:34:48;;;;;;;51.00;25.80;;;;;;;0.93;77.43;99651.14;208338;1295;139600;-67
2022/12/21 05:39:53;;;;;;;42.70;20.50;;;;;;;0.93;77.99;99654.00;207858;1295;141185;-68
2022/12/21 05:44:58;;;;;;;36.80;16.70;;;;;;;0.94;77.67;99652.96;207640;1295;139018;-68
2022/12/21 05:50:03;;;;;;;34.50;18.10;;;;;;;0.92;78.18;99648.10;208060;1294;139818;-69
2022/12/21 05:55:08;;;;;;;40.90;20.90;;;;;;;1.01;77.73;99655.15;209110;1287;139818;-69
2022/12/21 06:00:12;;;;;;;46.30;20.90;;;;;;;1.09;77.99;99647.79;209316;1288;139961;-69
2022/12/21 06:05:19;;;;;;;36.20;19.40;;;;;;;1.13;78.28;99643.63;210008;1294;140372;-67
2022/12/21 06:10:24;;;;;;;35.70;19.30;;;;;;;1.14;77.89;99641.23;209521;1294;139664;-68
2022/12/21 06:15:30;;;;;;;42.10;19.80;;;;;;;1.17;77.97;99640.45;210376;1289;140300;-69
2022/12/21 06:20:34;;;;;;;33.40;16.30;;;;;;;1.18;77.98;99640.15;209723;1288;141258;-69
2022/12/21 06:25:41;;;;;;;33.00;17.40;;;;;;;1.18;77.80;99644.23;210435;1294;140903;-69
2022/12/21 06:30:46;;;;;;;42.60;21.80;;;;;;;1.28;77.48;99639.29;208945;1294;141831;-70
2022/12/21 06:35:57;;;;;;;39.40;19.20;;;;;;;1.24;77.93;99641.45;207755;1291;140017;-69
2022/12/21 06:41:10;;;;;;;42.60;21.90;;;;;;;1.22;77.97;99643.08;208569;1293;138959;-68
2022/12/21 06:46:17;;;;;;;37.00;20.50;;;;;;;1.24;77.89;99648.14;209178;1294;490222;-68
2022/12/21 06:51:22;;;;;;;43.30;20.60;;;;;;;1.30;77.85;99652.53;209149;1294;139741;-67
2022/12/21 06:56:30;;;;;;;40.60;21.30;;;;;;;1.33;77.81;99647.06;208870;1288;141179;-69
2022/12/21 07:01:35;;;;;;;30.10;18.00;;;;;;;1.36;77.90;99636.05;207804;1281;140774;-69
2022/12/21 07:06:41;;;;;;;29.50;15.30;;;;;;;1.32;77.92;99637.67;207636;1287;139101;-68
2022/12/21 07:11:46;;;;;;;35.10;19.40;;;;;;;1.33;78.22;99631.50;208256;1288;140620;-69
2022/12/21 07:16:50;;;;;;;43.50;19.80;;;;;;;1.39;78.01;99622.42;207625;1287;141510;-68
2022/12/21 07:21:55;;;;;;;43.00;19.50;;;;;;;1.46;78.35;99627.95;208751;1287;140474;-69
2022/12/21 07:27:01;;;;;;;37.00;18.30;;;;;;;1.50;78.14;99631.23;207841;1280;139295;-65
2022/12/21 07:32:06;;;;;;;40.80;18.10;;;;;;;1.55;77.99;99637.20;207647;1294;140381;-67
2022/12/21 07:37:11;;;;;;;38.70;18.50;;;;;;;1.58;77.91;99640.59;208589;1288;139044;-66
2022/12/21 07:42:16;;;;;;;37.60;20.50;;;;;;;1.65;77.73;99638.63;208001;1287;140468;-67
2022/12/21 07:47:21;;;;;;;27.70;14.30;;;;;;;1.70;77.74;99644.45;207632;1294;140424;-66
2022/12/21 07:52:24;;;;;;;27.50;14.00;;;;;;;1.74;77.80;99646.36;207937;1294;140483;-66
2022/12/21 07:57:29;;;;;;;26.70;13.20;;;;;;;1.78;77.77;99648.20;207372;1293;142227;-67
2022/12/21 08:02:33;;;;;;;35.90;16.40;;;;;;;1.84;77.98;99644.43;210300;1287;140230;-67
2022/12/21 08:07:37;;;;;;;35.70;17.90;;;;;;;1.98;77.80;99644.68;208121;1288;141305;-69
2022/12/21 08:12:41;;;;;;;35.30;17.20;;;;;;;2.03;77.63;99645.33;210558;1294;140905;-68
2022/12/21 08:17:45;;;;;;;31.40;16.50;;;;;;;2.06;77.44;99638.36;209257;1294;139498;-66
2022/12/21 08:22:50;;;;;;;37.00;17.70;;;;;;;2.07;77.50;99633.81;209617;1294;140656;-70
2022/12/21 08:27:55;;;;;;;31.10;17.10;;;;;;;2.17;77.36;99631.36;208807;1287;141275;-70
2022/12/21 08:33:00;;;;;;;33.00;18.00;;;;;;;2.29;77.37;99634.15;208415;1282;144047;-67
2022/12/21 08:38:05;;;;;;;40.20;20.00;;;;;;;2.39;77.36;99630.48;209809;1294;139833;-69
2022/12/21 08:43:09;;;;;;;34.70;17.90;;;;;;;2.51;77.18;99625.52;209067;1294;139825;-71
2022/12/21 08:48:14;;;;;;;77.10;38.70;;;;;;;2.68;77.25;99628.42;207568;1295;230782;-67
2022/12/21 08:53:18;;;;;;;39.70;20.10;;;;;;;2.85;76.85;99620.13;208959;1287;139970;-65
2022/12/21 08:58:25;;;;;;;35.20;22.00;;;;;;;3.02;76.70;99615.27;207661;1288;140038;-68
2022/12/21 09:03:30;;;;;;;35.20;18.40;;;;;;;3.15;76.54;99612.38;207714;1287;231541;-69
2022/12/21 09:08:35;;;;;;;36.70;20.20;;;;;;;3.21;76.42;99607.80;207333;1288;139356;-69
2022/12/21 09:13:40;;;;;;;28.10;16.80;;;;;;;3.22;76.15;99612.56;207976;1294;140309;-73
2022/12/21 09:18:45;;;;;;;44.00;20.70;;;;;;;3.33;75.89;99613.66;208538;1289;139832;-67
2022/12/21 09:23:51;;;;;;;37.80;19.80;;;;;;;3.43;75.82;99617.79;207418;1287;140516;-71
2022/12/21 09:28:56;;;;;;;31.20;18.70;;;;;;;3.51;75.97;99621.17;208200;1295;139308;-71
2022/12/21 09:34:01;;;;;;;30.00;16.20;;;;;;;3.63;75.87;99630.96;207330;1288;140110;-73
2022/12/21 09:39:05;;;;;;;19.60;11.00;;;;;;;3.70;75.78;99632.13;207260;1287;139029;-73
2022/12/21 09:44:54;;;;;;;33.00;15.90;;;;;;;3.77;75.41;99644.17;208408;1285;139251;-73
2022/12/21 09:50:08;;;;;;;35.20;19.70;;;;;;;3.84;75.24;99640.45;209475;1282;139833;-75
2022/12/21 09:55:16;;;;;;;32.60;17.70;;;;;;;3.87;75.10;99631.19;210435;1294;140231;-75
2022/12/21 10:00:27;;;;;;;35.00;20.00;;;;;;;3.90;75.12;99620.10;208800;1291;140653;-74
2022/12/21 10:05:49;;;;;;;36.10;23.10;;;;;;;3.94;74.70;99608.20;209745;1287;140636;-71
2022/12/21 10:11:08;;;;;;;31.50;17.00;;;;;;;3.95;74.55;99606.54;210439;1288;140969;-68
2022/12/21 10:16:32;;;;;;;37.10;17.00;;;;;;;3.97;74.56;99608.31;210404;1279;139864;-72
2022/12/21 10:22:16;;;;;;;30.70;16.70;;;;;;;4.00;74.61;99609.17;210373;1288;139344;-73
2022/12/21 10:27:32;;;;;;;26.90;17.00;;;;;;;4.04;74.44;99612.16;208297;1294;140038;-69
2022/12/21 10:32:38;;;;;;;37.00;19.70;;;;;;;4.05;74.17;99616.27;207971;1287;139489;-70
2022/12/21 10:37:49;;;;;;;36.60;19.40;;;;;;;4.05;73.95;99615.54;208944;1288;140317;-67
2022/12/21 10:42:55;;;;;;;37.10;20.00;;;;;;;4.03;74.18;99615.08;208026;1287;141322;-68
2022/12/21 10:48:00;;;;;;;31.10;18.80;;;;;;;4.08;74.12;99604.51;207540;1281;140984;-68
2022/12/21 10:53:25;;;;;;;33.30;15.90;;;;;;;4.10;74.26;99603.52;208435;1287;140399;-70
2022/12/21 10:58:35;;;;;;;35.80;19.10;;;;;;;4.12;73.87;99595.52;208414;1295;139605;-69
2022/12/21 11:03:41;;;;;;;37.30;19.40;;;;;;;4.18;74.01;99588.30;207337;1287;139481;-69
2022/12/21 11:08:55;;;;;;;30.60;17.80;;;;;;;4.18;74.09;99581.84;208115;1294;139521;-68
2022/12/21 11:14:04;;;;;;;36.50;17.00;;;;;;;4.11;73.94;99572.63;207982;1293;139385;-68
2022/12/21 11:19:17;;;;;;;21.90;13.00;;;;;;;3.97;74.06;99567.26;207655;1287;141428;-69
2022/12/21 11:24:24;;;;;;;34.20;18.90;;;;;;;3.85;73.92;99550.08;207561;1287;140985;-70
2022/12/21 11:29:42;;;;;;;39.30;22.00;;;;;;;3.86;74.05;99537.88;207712;1288;140928;-68
2022/12/21 11:34:59;;;;;;;34.70;18.00;;;;;;;3.88;74.02;99541.54;207667;1284;140258;-68
2022/12/21 11:40:11;;;;;;;;;;;;;;;3.86;74.30;99541.57;207904;1293;139341;-68
2022/12/21 11:45:22;;;;;;;38.90;20.00;;;;;;;3.80;74.48;99535.86;208206;1282;126093;-67
2022/12/21 11:50:45;;;;;;;31.60;16.60;;;;;;;3.73;74.39;99542.55;208682;1295;140847;-69
2022/12/21 11:56:01;;;;;;;30.70;16.90;;;;;;;3.62;74.26;99543.52;209320;1287;139566;-69
2022/12/21 12:01:46;;;;;;;42.20;18.20;;;;;;;3.56;74.52;99531.73;209043;1290;139662;-69
2022/12/21 12:06:52;;;;;;;32.80;20.10;;;;;;;3.58;74.38;99526.51;207257;1295;150833;-68
2022/12/21 12:12:04;;;;;;;33.60;18.70;;;;;;;3.52;74.46;99523.27;207600;1289;140697;-68
2022/12/21 12:17:47;;;;;;;24.40;14.90;;;;;;;3.44;74.50;99524.83;209727;1294;247308;-69
2022/12/21 12:23:11;;;;;;;35.10;18.20;;;;;;;3.38;74.63;99531.31;207940;1288;139766;-69
2022/12/21 12:28:27;;;;;;;34.20;17.50;;;;;;;3.39;74.53;99522.89;210181;1294;139211;-69
2022/12/21 12:33:43;;;;;;;37.50;18.60;;;;;;;3.44;74.64;99517.95;207477;1287;140614;-68
2022/12/21 12:38:50;;;;;;;29.00;18.70;;;;;;;3.40;74.53;99506.41;208581;1288;139523;-69
2022/12/21 12:44:02;;;;;;;36.60;19.70;;;;;;;3.38;74.86;99503.88;209395;1294;139783;-69
2022/12/21 12:49:13;;;;;;;34.20;17.20;;;;;;;3.37;74.91;99507.33;209193;1295;139122;-69
2022/12/21 12:54:48;;;;;;;28.30;16.40;;;;;;;3.35;75.01;99509.95;208123;1285;140375;-68
2022/12/21 13:00:04;;;;;;;38.80;18.40;;;;;;;3.32;75.25;99510.35;208394;1293;139120;-68
2022/12/21 13:05:09;;;;;;;35.50;18.80;;;;;;;3.36;75.37;99507.37;207593;1295;140438;-69
2022/12/21 13:10:30;;;;;;;34.00;19.80;;;;;;;3.37;75.57;99501.40;208765;1293;140314;-68
2022/12/21 13:16:07;;;;;;;25.50;16.10;;;;;;;3.36;75.92;99505.27;208536;1288;139576;-69
2022/12/21 13:21:14;;;;;;;30.70;17.40;;;;;;;3.23;75.93;99504.53;208188;1287;140235;-69
2022/12/21 13:26:30;;;;;;;35.90;19.40;;;;;;;3.18;76.07;99508.23;207861;1287;139847;-69
2022/12/21 13:31:49;;;;;;;33.50;20.20;;;;;;;3.19;76.43;99508.99;208329;1287;141100;-69
2022/12/21 13:36:56;;;;;;;30.40;18.50;;;;;;;3.14;76.70;99502.95;207619;1287;219321;-69
2022/12/21 13:42:16;;;;;;;33.70;20.00;;;;;;;3.06;77.00;99506.23;207837;1287;140427;-69
2022/12/21 13:47:24;;;;;;;34.30;19.20;;;;;;;3.00;77.40;99505.88;209501;1287;139971;-69
2022/12/21 13:53:06;;;;;;;34.30;17.90;;;;;;;2.97;77.53;99507.32;210522;1290;140347;-69
2022/12/21 13:58:29;;;;;;;30.50;19.10;;;;;;;2.98;77.50;99508.81;209273;1287;140932;-69
2022/12/21 14:03:47;;;;;;;37.60;18.50;;;;;;;3.01;78.04;99509.45;209046;1287;140499;-69
2022/12/21 14:09:17;;;;;;;27.40;17.30;;;;;;;3.00;77.96;99509.56;210588;1294;141153;-69
2022/12/21 14:14:46;;;;;;;32.00;18.10;;;;;;;2.97;78.28;99508.93;210481;1280;243600;-70
2022/12/21 14:19:55;;;;;;;30.50;17.80;;;;;;;2.98;78.02;99508.25;207790;1293;140275;-70
2022/12/21 14:25:02;;;;;;;33.90;18.90;;;;;;;2.94;78.49;99509.88;208199;1289;141634;-69
2022/12/21 14:30:16;;;;;;;31.40;18.70;;;;;;;2.91;78.78;99506.49;209091;1288;139926;-70
2022/12/21 14:35:41;;;;;;;33.70;16.50;;;;;;;2.86;78.98;99510.90;208126;1298;139884;-70
2022/12/21 14:40:59;;;;;;;36.50;17.50;;;;;;;2.83;79.26;99505.64;209958;1295;139409;-70
2022/12/21 14:46:25;;;;;;;36.30;19.40;;;;;;;2.86;79.11;99507.13;207825;1293;141146;-70
2022/12/21 14:51:36;;;;;;;34.80;19.50;;;;;;;2.84;79.27;99500.88;207414;1300;140411;-70
2022/12/21 14:56:40;;;;;;;30.40;18.30;;;;;;;2.81;79.67;99495.50;207428;1287;140071;-71
2022/12/21 15:01:55;;;;;;;31.40;16.50;;;;;;;2.77;79.62;99491.46;207633;1293;150181;-69
2022/12/21 15:07:15;;;;;;;38.00;21.50;;;;;;;2.76;79.76;99491.98;207422;1288;139689;-69
2022/12/21 15:12:37;;;;;;;33.60;19.20;;;;;;;2.75;80.02;99497.00;209244;1288;142109;-69
2022/12/21 15:17:41;;;;;;;30.90;19.10;;;;;;;2.67;80.07;99500.10;207727;1294;139756;-69
2022/12/21 15:23:15;;;;;;;40.40;20.70;;;;;;;2.62;80.06;99502.52;207591;1292;139108;-69
2022/12/21 15:28:25;;;;;;;37.00;22.40;;;;;;;2.63;80.03;99504.73;208530;1298;140613;-69
2022/12/21 15:33:37;;;;;;;36.50;21.90;;;;;;;2.64;80.63;99503.27;208552;1297;140500;-69
2022/12/21 15:38:45;;;;;;;34.80;22.20;;;;;;;2.64;80.74;99499.59;208457;1294;140536;-69
2022/12/21 15:44:12;;;;;;;40.90;20.10;;;;;;;2.62;80.66;99501.39;207626;1288;140211;-69
2022/12/21 15:49:57;;;;;;;33.90;20.40;;;;;;;2.66;80.70;99499.31;208596;1294;140767;-69
2022/12/21 15:55:11;;;;;;;32.70;21.80;;;;;;;2.64;80.88;99497.11;209123;1301;141437;-69
2022/12/21 16:00:19;;;;;;;41.20;20.20;;;;;;;2.56;80.78;99497.69;207620;1289;139980;-69
2022/12/21 16:05:28;;;;;;;43.90;22.30;;;;;;;2.60;81.08;99496.48;210402;1302;140275;-70
2022/12/21 16:10:36;;;;;;;37.60;22.00;;;;;;;2.62;81.38;99494.67;210553;1288;140407;-70
2022/12/21 16:15:43;;;;;;;43.00;24.00;;;;;;;2.61;81.35;99496.20;210206;1294;139334;-70
2022/12/21 16:21:00;;;;;;;36.10;19.10;;;;;;;2.62;81.43;99497.02;209090;1295;140258;-70
2022/12/21 16:26:09;;;;;;;38.90;20.80;;;;;;;2.66;81.31;99498.95;209615;1294;140186;-71
2022/12/21 16:31:27;;;;;;;38.10;21.00;;;;;;;2.66;81.65;99497.67;207959;1294;141108;-71
2022/12/21 16:36:32;;;;;;;34.20;20.40;;;;;;;2.61;81.58;99500.73;207462;1294;141223;-66
2022/12/21 16:41:37;;;;;;;38.60;23.20;;;;;;;2.56;81.61;99497.69;207678;1293;140958;-67
2022/12/21 16:46:42;;;;;;;42.80;22.10;;;;;;;2.57;81.76;99499.56;208477;1292;140181;-69
2022/12/21 16:51:46;;;;;;;38.10;23.50;;;;;;;2.54;81.77;99499.49;207830;1294;142179;-69
2022/12/21 16:56:56;;;;;;;35.10;23.20;;;;;;;2.48;82.04;99494.57;207904;1294;140820;-69
2022/12/21 17:02:30;;;;;;;37.20;21.10;;;;;;;2.40;82.19;99491.11;208715;1287;141271;-68
2022/12/21 17:07:42;;;;;;;41.60;21.40;;;;;;;2.42;82.31;99493.00;207920;1284;246643;-69
2022/12/21 17:12:54;;;;;;;40.90;22.20;;;;;;;2.44;82.45;99490.78;208861;1295;142329;-69
2022/12/21 17:18:04;;;;;;;37.90;21.20;;;;;;;2.46;82.46;99486.01;207834;1293;142747;-69
2022/12/21 17:23:11;;;;;;;37.30;19.90;;;;;;;2.44;82.69;99480.19;208187;1294;139921;-69
2022/12/21 17:28:36;;;;;;;37.30;20.40;;;;;;;2.45;82.68;99474.95;207591;1293;140290;-68
2022/12/21 17:33:40;;;;;;;42.30;22.50;;;;;;;2.48;82.77;99472.10;207486;1293;141435;-69
2022/12/21 17:38:46;;;;;;;37.80;22.40;;;;;;;2.47;82.99;99464.77;208562;1288;141790;-69
2022/12/21 17:43:51;;;;;;;39.10;20.90;;;;;;;2.48;82.94;99466.92;209181;1297;139390;-70
2022/12/21 17:49:04;;;;;;;35.00;21.50;;;;;;;2.52;82.80;99462.23;209072;1287;139836;-70
2022/12/21 17:54:11;;;;;;;40.10;20.50;;;;;;;2.54;82.86;99467.14;210362;1300;139971;-69
2022/12/21 17:59:15;;;;;;;39.60;22.10;;;;;;;2.51;82.96;99469.91;208286;1287;140428;-69
2022/12/21 18:04:19;;;;;;;36.30;19.50;;;;;;;2.53;83.16;99469.20;207571;1295;140887;-68
2022/12/21 18:09:31;;;;;;;44.80;24.00;;;;;;;2.54;82.86;99463.59;210364;1294;152293;-69
2022/12/21 18:14:37;;;;;;;38.50;23.20;;;;;;;2.53;82.96;99457.83;209049;1297;140679;-70
2022/12/21 18:19:41;;;;;;;42.70;23.70;;;;;;;2.51;83.08;99444.36;208437;1287;141211;-68
2022/12/21 18:24:47;;;;;;;41.30;21.50;;;;;;;2.48;83.22;99424.51;208735;1293;141669;-67
2022/12/21 18:29:53;;;;;;;42.30;23.60;;;;;;;2.54;83.22;99425.05;209219;1288;140176;-69
2022/12/21 18:34:58;;;;;;;42.20;23.90;;;;;;;2.57;83.33;99439.40;208591;1294;140858;-70
2022/12/21 18:40:13;;;;;;;40.60;22.10;;;;;;;2.56;83.44;99441.13;207478;1294;139598;-68
2022/12/21 18:45:17;;;;;;;43.90;22.60;;;;;;;2.51;83.45;99446.95;207970;1294;139223;-70
2022/12/21 18:50:22;;;;;;;49.10;23.40;;;;;;;2.52;83.56;99446.36;207387;1288;458211;-69
2022/12/21 18:55:28;;;;;;;47.20;26.30;;;;;;;2.51;83.54;99449.63;207935;1294;140299;-69
2022/12/21 19:00:36;;;;;;;43.40;25.50;;;;;;;2.44;83.61;99450.47;207680;1293;139341;-68
2022/12/21 19:05:43;;;;;;;49.10;25.60;;;;;;;2.42;83.74;99447.98;207804;1293;140351;-69
2022/12/21 19:10:53;;;;;;;50.00;23.40;;;;;;;2.47;84.00;99451.02;208224;1282;140752;-69
2022/12/21 19:16:03;;;;;;;52.40;28.70;;;;;;;2.50;83.97;99450.19;207584;1289;140901;-69
2022/12/21 19:21:27;;;;;;;46.80;26.40;;;;;;;2.49;83.98;99448.63;208216;1293;140418;-69
2022/12/21 19:26:34;;;;;;;46.70;23.70;;;;;;;2.48;84.28;99451.75;207929;1293;141339;-69
2022/12/21 19:31:39;;;;;;;52.50;26.60;;;;;;;2.52;84.15;99454.38;207773;1293;140631;-68
2022/12/21 19:36:46;;;;;;;49.10;25.10;;;;;;;2.55;84.09;99463.63;207997;1292;143013;-68
2022/12/21 19:41:52;;;;;;;50.00;25.60;;;;;;;2.49;84.16;99460.54;207797;1294;139021;-70
2022/12/21 19:46:56;;;;;;;53.20;25.60;;;;;;;2.47;84.41;99460.73;210000;1293;140346;-69
2022/12/21 19:52:03;;;;;;;48.00;25.90;;;;;;;2.55;84.27;99462.21;210349;1299;140380;-69
2022/12/21 19:57:20;;;;;;;54.90;26.90;;;;;;;2.58;84.45;99463.45;210201;1301;143918;-69
2022/12/21 20:02:32;;;;;;;60.30;27.10;;;;;;;2.59;84.46;99469.13;210300;1295;140485;-69
2022/12/21 20:07:43;;;;;;;48.70;24.50;;;;;;;2.65;84.24;99462.71;210426;1300;140587;-70
2022/12/21 20:12:50;;;;;;;45.90;24.80;;;;;;;2.69;83.97;99458.66;209104;1285;139772;-69
2022/12/21 20:17:58;;;;;;;47.30;25.30;;;;;;;2.66;84.13;99460.83;208730;1294;139873;-68
2022/12/21 20:23:06;;;;;;;56.00;24.90;;;;;;;2.67;84.41;99456.41;208073;1286;140415;-69
2022/12/21 20:28:18;;;;;;;47.20;24.20;;;;;;;2.67;84.24;99456.50;209412;1299;140907;-69
2022/12/21 20:33:26;;;;;;;48.80;26.50;;;;;;;2.63;84.29;99444.88;208047;1294;140791;-69
2022/12/21 20:38:31;;;;;;;49.00;24.90;;;;;;;2.60;84.43;99450.96;208586;1288;139729;-68
2022/12/21 20:43:55;;;;;;;46.60;23.90;;;;;;;2.59;84.60;99438.77;207792;1295;139048;-69
2022/12/21 20:49:03;;;;;;;46.70;23.20;;;;;;;2.62;84.60;99428.89;208625;1293;143188;-69
2022/12/21 20:54:16;;;;;;;49.40;25.40;;;;;;;2.63;84.65;99424.77;207801;1293;139643;-68
2022/12/21 20:59:26;;;;;;;49.90;26.10;;;;;;;2.56;84.62;99418.83;207648;1293;140826;-67
2022/12/21 21:04:38;;;;;;;47.20;25.30;;;;;;;2.55;84.78;99418.09;208471;1299;246350;-69
2022/12/21 21:09:53;;;;;;;44.30;23.90;;;;;;;2.60;84.92;99424.98;207654;1293;140268;-70
2022/12/21 21:15:07;;;;;;;;;;;;;;;2.57;84.89;99418.35;207865;1293;140011;-67
2022/12/21 21:25:58;;;;;;;50.80;24.30;;;;;;;2.51;84.98;99417.20;208081;1282;221444;-65
2022/12/21 21:31:12;;;;;;;45.10;24.50;;;;;;;2.53;85.19;99417.91;209439;1299;140484;-66
2022/12/21 21:36:23;;;;;;;50.60;26.20;;;;;;;2.56;85.35;99415.47;208617;1289;140088;-63
2022/12/21 21:41:37;;;;;;;70.50;40.30;;;;;;;2.58;85.33;99414.19;208931;1293;139603;-64
2022/12/21 21:46:46;;;;;;;132.10;79.50;;;;;;;2.61;85.20;99410.41;210198;1288;140511;-66
2022/12/21 21:51:54;;;;;;;54.20;31.30;;;;;;;2.63;85.34;99408.20;210213;1281;227289;-63
2022/12/21 21:57:03;;;;;;;70.50;44.20;;;;;;;2.64;85.44;99411.81;208973;1287;249067;-67
2022/12/21 22:02:30;;;;;;;51.50;31.30;;;;;;;2.63;85.26;99417.23;209435;1300;141056;-64
2022/12/21 22:07:41;;;;;;;49.90;27.80;;;;;;;2.64;85.05;99413.77;210307;1288;139775;-66
2022/12/21 22:12:49;;;;;;;47.30;27.60;;;;;;;2.68;85.36;99413.23;208683;1288;218478;-65
2022/12/21 22:18:00;;;;;;;51.00;25.60;;;;;;;2.74;85.64;99415.73;209135;1291;222323;-64
2022/12/21 22:34:10;;;;;;;46.40;24.60;;;;;;;2.76;85.43;99407.64;208582;1295;139729;-65
2022/12/21 22:44:52;;;;;;;46.30;23.60;;;;;;;2.75;85.16;99406.42;208144;1287;221511;-64
2022/12/21 22:50:04;;;;;;;63.50;36.70;;;;;;;2.75;85.78;99403.80;208910;1287;140384;-65
2022/12/21 22:55:22;;;;;;;44.90;24.30;;;;;;;2.71;85.74;99394.98;208193;1289;140830;-65
2022/12/21 23:00:29;;;;;;;50.70;24.30;;;;;;;2.70;85.60;99395.47;208996;1287;207069;-64
2022/12/21 23:05:36;;;;;;;44.50;26.00;;;;;;;2.74;85.57;99397.23;207695;1281;247337;-64
2022/12/21 23:10:42;;;;;;;45.90;22.70;;;;;;;2.73;85.77;99388.11;209210;1295;141375;-66
2022/12/21 23:15:47;;;;;;;45.70;23.90;;;;;;;2.72;85.96;99385.23;207770;1289;139139;-63
